sensor_id;sensor_type;location;lat;lon;timestamp;pressure;altitude;pressure_sealevel;temperature;humidity
75699;BME280;64313;51.018;13.742;2023-07-22T00:01:48;99383.38;;;16.49;71.46
75699;BME280;64313;51.018;13.742;2023-07-22T00:04:13;99381.47;;;16.50;71.87
75699;BME280;64313;51.018;13.742;2023-07-22T00:06:38;99381.69;;;16.43;72.41
75699;BME280;64313;51.018;13.742;2023-07-22T00:09:04;99379.13;;;16.36;72.45
75699;BME280;64313;51.018;13.742;2023-07-22T00:11:29;99374.03;;;16.40;71.66
75699;BME280;64313;51.018;13.742;2023-07-22T00:13:54;99379.44;;;16.40;72.01
75699;BME280;64313;51.018;13.742;2023-07-22T00:16:20;99382.41;;;16.38;71.80
75699;BME280;64313;51.018;13.742;2023-07-22T00:18:45;99388.19;;;16.30;72.07
75699;BME280;64313;51.018;13.742;2023-07-22T00:21:11;99388.53;;;16.34;71.54
75699;BME280;64313;51.018;13.742;2023-07-22T00:23:36;99389.84;;;16.31;71.77
75699;BME280;64313;51.018;13.742;2023-07-22T00:26:01;99389.75;;;16.26;72.69
75699;BME280;64313;51.018;13.742;2023-07-22T00:28:26;99397.50;;;16.22;73.11
75699;BME280;64313;51.018;13.742;2023-07-22T00:30:52;99397.50;;;16.22;71.89
75699;BME280;64313;51.018;13.742;2023-07-22T00:33:18;99396.94;;;16.20;72.10
75699;BME280;64313;51.018;13.742;2023-07-22T00:35:47;99409.13;;;16.23;71.47
75699;BME280;64313;51.018;13.742;2023-07-22T00:38:15;99407.25;;;16.23;71.96
75699;BME280;64313;51.018;13.742;2023-07-22T00:40:40;99424.16;;;16.19;72.89
75699;BME280;64313;51.018;13.742;2023-07-22T00:43:06;99415.47;;;16.17;72.37
75699;BME280;64313;51.018;13.742;2023-07-22T00:45:32;99416.56;;;16.16;72.74
75699;BME280;64313;51.018;13.742;2023-07-22T00:47:57;99415.38;;;16.12;72.30
75699;BME280;64313;51.018;13.742;2023-07-22T00:50:24;99418.56;;;16.09;72.85
75699;BME280;64313;51.018;13.742;2023-07-22T00:52:50;99405.31;;;16.07;72.90
75699;BME280;64313;51.018;13.742;2023-07-22T00:55:16;99416.13;;;16.07;73.10
75699;BME280;64313;51.018;13.742;2023-07-22T00:57:41;99407.69;;;16.04;73.16
75699;BME280;64313;51.018;13.742;2023-07-22T01:00:07;99414.13;;;16.02;73.33
75699;BME280;64313;51.018;13.742;2023-07-22T01:02:33;99411.13;;;15.99;72.89
75699;BME280;64313;51.018;13.742;2023-07-22T01:04:59;99413.81;;;15.99;73.19
75699;BME280;64313;51.018;13.742;2023-07-22T01:07:25;99415.94;;;15.97;73.04
75699;BME280;64313;51.018;13.742;2023-07-22T01:09:55;99416.75;;;15.97;72.41
75699;BME280;64313;51.018;13.742;2023-07-22T01:12:21;99405.16;;;15.97;72.97
75699;BME280;64313;51.018;13.742;2023-07-22T01:14:46;99414.31;;;15.96;73.01
75699;BME280;64313;51.018;13.742;2023-07-22T01:17:12;99412.91;;;15.93;73.22
75699;BME280;64313;51.018;13.742;2023-07-22T01:19:38;99413.16;;;15.92;73.17
75699;BME280;64313;51.018;13.742;2023-07-22T01:22:05;99408.56;;;15.92;73.11
75699;BME280;64313;51.018;13.742;2023-07-22T01:24:33;99403.44;;;15.91;72.94
75699;BME280;64313;51.018;13.742;2023-07-22T01:26:58;99406.13;;;15.91;72.96
75699;BME280;64313;51.018;13.742;2023-07-22T01:29:24;99417.41;;;15.88;73.09
75699;BME280;64313;51.018;13.742;2023-07-22T01:31:52;99408.72;;;15.86;73.34
75699;BME280;64313;51.018;13.742;2023-07-22T01:34:18;99407.56;;;15.82;73.44
75699;BME280;64313;51.018;13.742;2023-07-22T01:36:45;99412.16;;;15.81;73.67
75699;BME280;64313;51.018;13.742;2023-07-22T01:39:11;99412.16;;;15.81;73.68
75699;BME280;64313;51.018;13.742;2023-07-22T01:41:37;99411.56;;;15.79;73.39
75699;BME280;64313;51.018;13.742;2023-07-22T01:44:02;99413.44;;;15.78;73.18
75699;BME280;64313;51.018;13.742;2023-07-22T01:46:28;99419.31;;;15.75;73.73
75699;BME280;64313;51.018;13.742;2023-07-22T01:48:55;99429.50;;;15.73;74.23
75699;BME280;64313;51.018;13.742;2023-07-22T01:51:20;99435.97;;;15.72;73.71
75699;BME280;64313;51.018;13.742;2023-07-22T01:53:46;99440.97;;;15.69;73.60
75699;BME280;64313;51.018;13.742;2023-07-22T01:56:11;99437.25;;;15.70;73.75
75699;BME280;64313;51.018;13.742;2023-07-22T01:58:36;99420.25;;;15.69;72.97
75699;BME280;64313;51.018;13.742;2023-07-22T02:01:02;99433.75;;;15.69;73.17
75699;BME280;64313;51.018;13.742;2023-07-22T02:03:27;99435.00;;;15.67;72.78
75699;BME280;64313;51.018;13.742;2023-07-22T02:05:53;99432.31;;;15.67;73.43
75699;BME280;64313;51.018;13.742;2023-07-22T02:08:18;99441.38;;;15.61;73.52
75699;BME280;64313;51.018;13.742;2023-07-22T02:10:43;99441.59;;;15.59;74.07
75699;BME280;64313;51.018;13.742;2023-07-22T02:13:09;99441.59;;;15.59;73.20
75699;BME280;64313;51.018;13.742;2023-07-22T02:15:35;99446.41;;;15.57;73.42
75699;BME280;64313;51.018;13.742;2023-07-22T02:18:00;99448.28;;;15.56;73.94
75699;BME280;64313;51.018;13.742;2023-07-22T02:20:26;99447.94;;;15.53;74.04
75699;BME280;64313;51.018;13.742;2023-07-22T02:22:54;99445.72;;;15.50;73.92
75699;BME280;64313;51.018;13.742;2023-07-22T02:25:20;99450.88;;;15.51;73.49
75699;BME280;64313;51.018;13.742;2023-07-22T02:27:45;99457.31;;;15.50;73.62
75699;BME280;64313;51.018;13.742;2023-07-22T02:30:11;99458.94;;;15.51;73.02
75699;BME280;64313;51.018;13.742;2023-07-22T02:32:40;99449.56;;;15.54;72.83
75699;BME280;64313;51.018;13.742;2023-07-22T02:35:09;99457.31;;;15.50;73.42
75699;BME280;64313;51.018;13.742;2023-07-22T02:37:37;99451.13;;;15.50;72.56
75699;BME280;64313;51.018;13.742;2023-07-22T02:40:03;99460.00;;;15.50;73.15
75699;BME280;64313;51.018;13.742;2023-07-22T02:42:35;99470.19;;;15.48;72.93
75699;BME280;64313;51.018;13.742;2023-07-22T02:45:01;99463.41;;;15.46;73.31
75699;BME280;64313;51.018;13.742;2023-07-22T02:47:26;99480.06;;;15.43;73.58
75699;BME280;64313;51.018;13.742;2023-07-22T02:49:52;99474.09;;;15.41;73.58
75699;BME280;64313;51.018;13.742;2023-07-22T02:52:17;99481.94;;;15.42;73.12
75699;BME280;64313;51.018;13.742;2023-07-22T02:55:06;99478.41;;;15.42;72.87
75699;BME280;64313;51.018;13.742;2023-07-22T02:57:32;99473.97;;;15.35;73.23
75699;BME280;64313;51.018;13.742;2023-07-22T02:59:58;99481.00;;;15.36;73.71
75699;BME280;64313;51.018;13.742;2023-07-22T03:02:23;99481.25;;;15.35;73.61
75699;BME280;64313;51.018;13.742;2023-07-22T03:04:49;99482.28;;;15.34;73.71
75699;BME280;64313;51.018;13.742;2023-07-22T03:07:15;99484.38;;;15.32;73.26
75699;BME280;64313;51.018;13.742;2023-07-22T03:09:40;99482.53;;;15.32;73.10
75699;BME280;64313;51.018;13.742;2023-07-22T03:12:06;99488.47;;;15.34;73.06
75699;BME280;64313;51.018;13.742;2023-07-22T03:14:31;99489.78;;;15.32;73.12
75699;BME280;64313;51.018;13.742;2023-07-22T03:17:02;99485.44;;;15.31;73.22
75699;BME280;64313;51.018;13.742;2023-07-22T03:19:27;99489.44;;;15.28;73.41
75699;BME280;64313;51.018;13.742;2023-07-22T03:21:52;99501.28;;;15.27;73.22
75699;BME280;64313;51.018;13.742;2023-07-22T03:24:18;99489.91;;;15.25;73.30
75699;BME280;64313;51.018;13.742;2023-07-22T03:26:44;99491.19;;;15.23;73.17
75699;BME280;64313;51.018;13.742;2023-07-22T03:29:09;99498.22;;;15.24;73.06
75699;BME280;64313;51.018;13.742;2023-07-22T03:31:34;99505.47;;;15.23;73.31
75699;BME280;64313;51.018;13.742;2023-07-22T03:34:00;99495.53;;;15.24;73.01
75699;BME280;64313;51.018;13.742;2023-07-22T03:36:25;99504.41;;;15.24;73.01
75699;BME280;64313;51.018;13.742;2023-07-22T03:38:52;99510.28;;;15.21;73.73
75699;BME280;64313;51.018;13.742;2023-07-22T03:41:17;99511.69;;;15.24;73.20
75699;BME280;64313;51.018;13.742;2023-07-22T03:43:43;99515.19;;;15.24;73.39
75699;BME280;64313;51.018;13.742;2023-07-22T03:46:08;99514.38;;;15.24;73.27
75699;BME280;64313;51.018;13.742;2023-07-22T03:48:34;99518.13;;;15.23;72.86
75699;BME280;64313;51.018;13.742;2023-07-22T03:50:59;99513.56;;;15.23;73.32
75699;BME280;64313;51.018;13.742;2023-07-22T03:53:25;99507.34;;;15.23;73.28
75699;BME280;64313;51.018;13.742;2023-07-22T03:55:50;99508.75;;;15.25;73.09
75699;BME280;64313;51.018;13.742;2023-07-22T03:58:15;99506.28;;;15.24;73.46
75699;BME280;64313;51.018;13.742;2023-07-22T04:00:41;99495.78;;;15.22;73.65
75699;BME280;64313;51.018;13.742;2023-07-22T04:03:06;99508.41;;;15.22;74.02
75699;BME280;64313;51.018;13.742;2023-07-22T04:05:31;99510.28;;;15.21;74.09
75699;BME280;64313;51.018;13.742;2023-07-22T04:07:57;99501.16;;;15.22;73.60
75699;BME280;64313;51.018;13.742;2023-07-22T04:10:22;99505.47;;;15.23;73.92
75699;BME280;64313;51.018;13.742;2023-07-22T04:12:48;99506.53;;;15.22;73.95
75699;BME280;64313;51.018;13.742;2023-07-22T04:15:13;99508.97;;;15.24;74.09
75699;BME280;64313;51.018;13.742;2023-07-22T04:17:40;99511.69;;;15.24;74.56
75699;BME280;64313;51.018;13.742;2023-07-22T04:20:06;99511.94;;;15.22;73.75
75699;BME280;64313;51.018;13.742;2023-07-22T04:22:33;99499.03;;;15.24;74.59
75699;BME280;64313;51.018;13.742;2023-07-22T04:24:59;99509.56;;;15.26;74.15
75699;BME280;64313;51.018;13.742;2023-07-22T04:27:26;99514.75;;;15.27;74.03
75699;BME280;64313;51.018;13.742;2023-07-22T04:29:52;99520.13;;;15.27;74.25
75699;BME280;64313;51.018;13.742;2023-07-22T04:32:18;99520.69;;;15.29;74.13
75699;BME280;64313;51.018;13.742;2023-07-22T04:34:43;99524.78;;;15.32;74.85
75699;BME280;64313;51.018;13.742;2023-07-22T04:37:09;99529.94;;;15.33;74.37
75699;BME280;64313;51.018;13.742;2023-07-22T04:39:34;99527.25;;;15.33;74.36
75699;BME280;64313;51.018;13.742;2023-07-22T04:42:00;99528.06;;;15.34;74.46
75699;BME280;64313;51.018;13.742;2023-07-22T04:44:25;99531.13;;;15.38;74.15
75699;BME280;64313;51.018;13.742;2023-07-22T04:46:50;99525.75;;;15.38;74.78
75699;BME280;64313;51.018;13.742;2023-07-22T04:49:16;99539.78;;;15.40;74.10
75699;BME280;64313;51.018;13.742;2023-07-22T04:51:45;99542.59;;;15.45;74.23
75699;BME280;64313;51.018;13.742;2023-07-22T04:54:11;99544.00;;;15.47;73.87
75699;BME280;64313;51.018;13.742;2023-07-22T04:56:36;99535.44;;;15.50;73.74
75699;BME280;64313;51.018;13.742;2023-07-22T04:59:01;99552.75;;;15.54;73.61
75699;BME280;64313;51.018;13.742;2023-07-22T05:01:26;99551.25;;;15.58;73.73
75699;BME280;64313;51.018;13.742;2023-07-22T05:03:52;99550.75;;;15.62;73.74
75699;BME280;64313;51.018;13.742;2023-07-22T05:06:20;99544.09;;;15.64;73.74
75699;BME280;64313;51.018;13.742;2023-07-22T05:08:45;99551.69;;;15.67;72.89
75699;BME280;64313;51.018;13.742;2023-07-22T05:11:10;99553.97;;;15.70;73.32
75699;BME280;64313;51.018;13.742;2023-07-22T05:13:36;99560.75;;;15.73;73.47
75699;BME280;64313;51.018;13.742;2023-07-22T05:16:01;99555.69;;;15.76;73.74
75699;BME280;64313;51.018;13.742;2023-07-22T05:18:26;99564.69;;;15.82;73.79
75699;BME280;64313;51.018;13.742;2023-07-22T05:20:52;99563.41;;;15.85;73.42
75699;BME280;64313;51.018;13.742;2023-07-22T05:23:17;99565.97;;;15.91;72.75
75699;BME280;64313;51.018;13.742;2023-07-22T05:25:42;99567.16;;;15.95;72.92
75699;BME280;64313;51.018;13.742;2023-07-22T05:28:07;99574.50;;;16.00;72.58
75699;BME280;64313;51.018;13.742;2023-07-22T05:30:33;99567.59;;;16.04;72.39
75699;BME280;64313;51.018;13.742;2023-07-22T05:32:58;99567.38;;;16.06;72.32
75699;BME280;64313;51.018;13.742;2023-07-22T05:35:23;99569.69;;;16.14;72.34
75699;BME280;64313;51.018;13.742;2023-07-22T05:37:49;99572.25;;;16.20;72.26
75699;BME280;64313;51.018;13.742;2023-07-22T05:40:14;99571.03;;;16.28;71.82
75699;BME280;64313;51.018;13.742;2023-07-22T05:42:39;99570.88;;;16.35;71.59
75699;BME280;64313;51.018;13.742;2023-07-22T05:45:06;99563.25;;;16.43;71.55
75699;BME280;64313;51.018;13.742;2023-07-22T05:47:32;99564.72;;;16.51;71.76
75699;BME280;64313;51.018;13.742;2023-07-22T05:49:57;99566.81;;;16.61;72.40
75699;BME280;64313;51.018;13.742;2023-07-22T05:52:23;99570.97;;;16.69;71.29
75699;BME280;64313;51.018;13.742;2023-07-22T05:54:48;99570.56;;;16.77;70.82
75699;BME280;64313;51.018;13.742;2023-07-22T05:57:13;99572.09;;;16.84;70.74
75699;BME280;64313;51.018;13.742;2023-07-22T05:59:39;99578.97;;;16.92;70.62
75699;BME280;64313;51.018;13.742;2023-07-22T06:02:06;99573.16;;;17.00;70.21
75699;BME280;64313;51.018;13.742;2023-07-22T06:04:31;99586.00;;;17.10;70.12
75699;BME280;64313;51.018;13.742;2023-07-22T06:06:57;99589.28;;;17.12;69.62
75699;BME280;64313;51.018;13.742;2023-07-22T06:09:23;99589.06;;;17.14;68.78
75699;BME280;64313;51.018;13.742;2023-07-22T06:11:48;99593.47;;;17.20;68.16
75699;BME280;64313;51.018;13.742;2023-07-22T06:14:13;99588.97;;;17.25;68.29
75699;BME280;64313;51.018;13.742;2023-07-22T06:16:39;99592.31;;;17.33;67.68
75699;BME280;64313;51.018;13.742;2023-07-22T06:19:04;99595.91;;;17.38;67.86
75699;BME280;64313;51.018;13.742;2023-07-22T06:21:30;99595.66;;;17.40;67.81
75699;BME280;64313;51.018;13.742;2023-07-22T06:23:55;99598.13;;;17.41;67.21
75699;BME280;64313;51.018;13.742;2023-07-22T06:26:21;99607.22;;;17.35;66.47
75699;BME280;64313;51.018;13.742;2023-07-22T06:28:47;99607.94;;;17.30;66.69
75699;BME280;64313;51.018;13.742;2023-07-22T06:31:12;99611.22;;;17.33;67.14
75699;BME280;64313;51.018;13.742;2023-07-22T06:33:37;99608.75;;;17.31;66.41
75699;BME280;64313;51.018;13.742;2023-07-22T06:36:03;99607.13;;;17.30;66.30
75699;BME280;64313;51.018;13.742;2023-07-22T06:38:28;99614.50;;;17.35;65.75
75699;BME280;64313;51.018;13.742;2023-07-22T06:40:54;99613.50;;;17.41;64.90
75699;BME280;64313;51.018;13.742;2023-07-22T06:43:19;99606.31;;;17.46;65.49
75699;BME280;64313;51.018;13.742;2023-07-22T06:45:44;99612.84;;;17.50;63.80
75699;BME280;64313;51.018;13.742;2023-07-22T06:48:10;99614.31;;;17.58;63.65
75699;BME280;64313;51.018;13.742;2023-07-22T06:50:35;99617.09;;;17.63;63.47
75699;BME280;64313;51.018;13.742;2023-07-22T06:53:00;99606.28;;;17.63;63.15
75699;BME280;64313;51.018;13.742;2023-07-22T06:55:26;99614.81;;;17.72;62.77
75699;BME280;64313;51.018;13.742;2023-07-22T06:57:51;99614.59;;;17.79;62.96
75699;BME280;64313;51.018;13.742;2023-07-22T07:00:17;99613.31;;;17.81;60.42
75699;BME280;64313;51.018;13.742;2023-07-22T07:02:42;99615.84;;;17.88;61.52
75699;BME280;64313;51.018;13.742;2023-07-22T07:05:07;99613.78;;;17.95;61.01
75699;BME280;64313;51.018;13.742;2023-07-22T07:07:33;99621.72;;;18.02;61.77
75699;BME280;64313;51.018;13.742;2023-07-22T07:09:58;99620.72;;;18.08;61.86
75699;BME280;64313;51.018;13.742;2023-07-22T07:12:23;99619.16;;;18.12;61.02
75699;BME280;64313;51.018;13.742;2023-07-22T07:14:53;99627.41;;;18.22;61.17
75699;BME280;64313;51.018;13.742;2023-07-22T07:17:18;99621.53;;;18.30;60.04
75699;BME280;64313;51.018;13.742;2023-07-22T07:19:44;99628.41;;;18.38;60.19
75699;BME280;64313;51.018;13.742;2023-07-22T07:22:09;99633.63;;;18.45;60.08
75699;BME280;64313;51.018;13.742;2023-07-22T07:24:35;99633.69;;;18.50;58.23
75699;BME280;64313;51.018;13.742;2023-07-22T07:27:00;99638.06;;;18.56;57.31
75699;BME280;64313;51.018;13.742;2023-07-22T07:29:25;99645.44;;;18.60;56.73
75699;BME280;64313;51.018;13.742;2023-07-22T07:31:51;99639.28;;;18.65;56.84
75699;BME280;64313;51.018;13.742;2023-07-22T07:34:16;99646.34;;;18.71;56.81
75699;BME280;64313;51.018;13.742;2023-07-22T07:36:41;99643.50;;;18.78;56.83
75699;BME280;64313;51.018;13.742;2023-07-22T07:39:07;99653.63;;;18.88;57.37
75699;BME280;64313;51.018;13.742;2023-07-22T07:41:33;99657.19;;;18.93;56.14
75699;BME280;64313;51.018;13.742;2023-07-22T07:43:58;99662.41;;;19.00;55.93
75699;BME280;64313;51.018;13.742;2023-07-22T07:46:25;99668.38;;;19.02;55.19
75699;BME280;64313;51.018;13.742;2023-07-22T07:48:59;99662.50;;;19.10;54.79
75699;BME280;64313;51.018;13.742;2023-07-22T07:51:27;99668.22;;;19.14;54.93
75699;BME280;64313;51.018;13.742;2023-07-22T07:53:53;99660.84;;;19.09;54.26
75699;BME280;64313;51.018;13.742;2023-07-22T07:56:19;99663.03;;;19.12;53.75
75699;BME280;64313;51.018;13.742;2023-07-22T07:58:48;99655.81;;;19.18;54.24
75699;BME280;64313;51.018;13.742;2023-07-22T08:01:14;99666.16;;;19.26;54.12
75699;BME280;64313;51.018;13.742;2023-07-22T08:03:41;99664.84;;;19.29;53.73
75699;BME280;64313;51.018;13.742;2023-07-22T08:06:10;99663.25;;;19.33;54.02
75699;BME280;64313;51.018;13.742;2023-07-22T08:08:36;99661.13;;;19.40;53.63
75699;BME280;64313;51.018;13.742;2023-07-22T08:11:10;99659.28;;;19.45;53.14
75699;BME280;64313;51.018;13.742;2023-07-22T08:13:36;99656.88;;;19.49;53.42
75699;BME280;64313;51.018;13.742;2023-07-22T08:16:03;99665.03;;;19.54;52.19
75699;BME280;64313;51.018;13.742;2023-07-22T08:18:30;99661.28;;;19.60;52.81
75699;BME280;64313;51.018;13.742;2023-07-22T08:20:55;99664.38;;;19.69;52.04
75699;BME280;64313;51.018;13.742;2023-07-22T08:23:21;99665.97;;;19.70;52.71
75699;BME280;64313;51.018;13.742;2023-07-22T08:25:47;99664.16;;;19.76;50.13
75699;BME280;64313;51.018;13.742;2023-07-22T08:28:12;99672.81;;;19.78;51.28
75699;BME280;64313;51.018;13.742;2023-07-22T08:30:38;99671.22;;;19.82;51.26
75699;BME280;64313;51.018;13.742;2023-07-22T08:33:06;99667.47;;;19.88;50.52
75699;BME280;64313;51.018;13.742;2023-07-22T08:35:34;99671.84;;;19.94;51.22
75699;BME280;64313;51.018;13.742;2023-07-22T08:37:59;99679.47;;;19.97;50.88
75699;BME280;64313;51.018;13.742;2023-07-22T08:40:24;99675.97;;;20.02;50.74
75699;BME280;64313;51.018;13.742;2023-07-22T08:42:50;99678.94;;;20.00;51.03
75699;BME280;64313;51.018;13.742;2023-07-22T08:45:16;99683.81;;;19.98;50.39
75699;BME280;64313;51.018;13.742;2023-07-22T08:47:46;99679.50;;;20.02;50.18
75699;BME280;64313;51.018;13.742;2023-07-22T08:50:15;99682.22;;;20.07;48.23
75699;BME280;64313;51.018;13.742;2023-07-22T08:52:41;99690.13;;;20.09;48.14
75699;BME280;64313;51.018;13.742;2023-07-22T08:55:08;99684.97;;;20.13;48.59
75699;BME280;64313;51.018;13.742;2023-07-22T08:57:36;99689.59;;;20.12;49.04
75699;BME280;64313;51.018;13.742;2023-07-22T09:00:02;99689.38;;;20.19;49.03
75699;BME280;64313;51.018;13.742;2023-07-22T09:02:30;99697.22;;;20.20;49.30
75699;BME280;64313;51.018;13.742;2023-07-22T09:04:55;99684.78;;;20.24;48.77
75699;BME280;64313;51.018;13.742;2023-07-22T09:07:21;99685.91;;;20.34;48.49
75699;BME280;64313;51.018;13.742;2023-07-22T09:09:47;99695.16;;;20.43;48.49
75699;BME280;64313;51.018;13.742;2023-07-22T09:12:14;99688.38;;;20.45;47.71
75699;BME280;64313;51.018;13.742;2023-07-22T09:14:40;99687.84;;;20.48;48.16
75699;BME280;64313;51.018;13.742;2023-07-22T09:17:05;99677.81;;;20.44;45.01
75699;BME280;64313;51.018;13.742;2023-07-22T09:19:31;99679.72;;;20.48;46.92
75699;BME280;64313;51.018;13.742;2023-07-22T09:21:56;99672.97;;;20.56;47.05
75699;BME280;64313;51.018;13.742;2023-07-22T09:24:24;99677.59;;;20.56;45.71
75699;BME280;64313;51.018;13.742;2023-07-22T09:26:50;99682.50;;;20.59;45.90
75699;BME280;64313;51.018;13.742;2023-07-22T09:29:16;99672.19;;;20.66;45.74
75699;BME280;64313;51.018;13.742;2023-07-22T09:31:50;99670.34;;;20.71;46.53
75699;BME280;64313;51.018;13.742;2023-07-22T09:34:15;99667.34;;;20.78;46.05
75699;BME280;64313;51.018;13.742;2023-07-22T09:36:53;99663.84;;;20.88;45.45
75699;BME280;64313;51.018;13.742;2023-07-22T09:39:20;99664.66;;;20.93;45.50
75699;BME280;64313;51.018;13.742;2023-07-22T09:41:46;99664.16;;;21.02;46.59
75699;BME280;64313;51.018;13.742;2023-07-22T09:44:11;99654.66;;;21.09;45.56
75699;BME280;64313;51.018;13.742;2023-07-22T09:46:40;99659.25;;;21.14;44.78
75699;BME280;64313;51.018;13.742;2023-07-22T09:49:08;99647.31;;;21.15;45.14
75699;BME280;64313;51.018;13.742;2023-07-22T09:51:39;99654.13;;;21.23;44.75
75699;BME280;64313;51.018;13.742;2023-07-22T09:54:05;99650.59;;;21.27;45.54
75699;BME280;64313;51.018;13.742;2023-07-22T09:56:32;99651.13;;;21.34;45.35
75699;BME280;64313;51.018;13.742;2023-07-22T09:58:59;99651.66;;;21.36;44.18
75699;BME280;64313;51.018;13.742;2023-07-22T10:01:25;99645.16;;;21.37;44.43
75699;BME280;64313;51.018;13.742;2023-07-22T10:03:55;99645.16;;;21.37;43.82
75699;BME280;64313;51.018;13.742;2023-07-22T10:06:26;99659.56;;;21.38;42.12
75699;BME280;64313;51.018;13.742;2023-07-22T10:08:52;99651.16;;;21.45;42.07
75699;BME280;64313;51.018;13.742;2023-07-22T10:11:18;99647.88;;;21.48;42.40
75699;BME280;64313;51.018;13.742;2023-07-22T10:13:43;99650.88;;;21.41;42.61
75699;BME280;64313;51.018;13.742;2023-07-22T10:16:10;99654.38;;;21.36;42.05
75699;BME280;64313;51.018;13.742;2023-07-22T10:18:35;99644.84;;;21.34;41.55
75699;BME280;64313;51.018;13.742;2023-07-22T10:21:02;99653.03;;;21.39;42.47
75699;BME280;64313;51.018;13.742;2023-07-22T10:23:29;99658.47;;;21.39;41.90
75699;BME280;64313;51.018;13.742;2023-07-22T10:25:57;99650.88;;;21.46;42.12
75699;BME280;64313;51.018;13.742;2023-07-22T10:28:23;99659.31;;;21.50;42.01
75699;BME280;64313;51.018;13.742;2023-07-22T10:30:49;99643.00;;;21.55;41.02
75699;BME280;64313;51.018;13.742;2023-07-22T10:33:15;99650.84;;;21.61;43.12
75699;BME280;64313;51.018;13.742;2023-07-22T10:35:42;99641.63;;;21.57;40.67
75699;BME280;64313;51.018;13.742;2023-07-22T10:38:14;99643.25;;;21.58;40.52
75699;BME280;64313;51.018;13.742;2023-07-22T10:40:51;99641.63;;;21.63;42.08
75699;BME280;64313;51.018;13.742;2023-07-22T10:43:19;99626.66;;;21.70;42.20
75699;BME280;64313;51.018;13.742;2023-07-22T10:45:49;99634.81;;;21.75;42.49
75699;BME280;64313;51.018;13.742;2023-07-22T10:48:15;99641.59;;;21.78;42.35
75699;BME280;64313;51.018;13.742;2023-07-22T10:50:51;99645.66;;;21.86;42.24
75699;BME280;64313;51.018;13.742;2023-07-22T11:06:29;99630.81;;;22.38;39.76
75699;BME280;64313;51.018;13.742;2023-07-22T11:08:55;99638.44;;;22.36;40.08
75699;BME280;64313;51.018;13.742;2023-07-22T11:11:20;99638.19;;;22.32;40.03
75699;BME280;64313;51.018;13.742;2023-07-22T11:13:46;99639.56;;;22.30;41.97
75699;BME280;64313;51.018;13.742;2023-07-22T11:16:12;99629.25;;;22.21;40.66
75699;BME280;64313;51.018;13.742;2023-07-22T11:18:41;99634.94;;;22.15;40.16
75699;BME280;64313;51.018;13.742;2023-07-22T11:21:11;99632.50;;;22.18;41.50
75699;BME280;64313;51.018;13.742;2023-07-22T11:23:36;99624.91;;;22.20;42.03
75699;BME280;64313;51.018;13.742;2023-07-22T11:26:03;99622.69;;;22.22;41.69
75699;BME280;64313;51.018;13.742;2023-07-22T11:28:29;99623.00;;;22.21;41.67
75699;BME280;64313;51.018;13.742;2023-07-22T11:30:55;99612.09;;;22.16;40.84
75699;BME280;64313;51.018;13.742;2023-07-22T11:33:21;99618.34;;;22.16;42.15
75699;BME280;64313;51.018;13.742;2023-07-22T11:35:46;99613.72;;;22.17;41.64
75699;BME280;64313;51.018;13.742;2023-07-22T11:38:12;99613.44;;;22.23;42.33
75699;BME280;64313;51.018;13.742;2023-07-22T11:40:37;99616.41;;;22.32;42.12
75699;BME280;64313;51.018;13.742;2023-07-22T11:43:03;99606.28;;;22.43;41.89
75699;BME280;64313;51.018;13.742;2023-07-22T11:45:28;99608.16;;;22.47;41.50
75699;BME280;64313;51.018;13.742;2023-07-22T11:47:54;99607.84;;;22.54;42.24
75699;BME280;64313;51.018;13.742;2023-07-22T11:50:30;99603.22;;;22.55;40.74
75699;BME280;64313;51.018;13.742;2023-07-22T11:52:57;99598.06;;;22.53;41.46
75699;BME280;64313;51.018;13.742;2023-07-22T11:55:23;99595.56;;;22.57;40.83
75699;BME280;64313;51.018;13.742;2023-07-22T11:57:52;99589.84;;;22.58;41.03
75699;BME280;64313;51.018;13.742;2023-07-22T12:00:18;99593.63;;;22.62;40.41
75699;BME280;64313;51.018;13.742;2023-07-22T12:02:43;99591.72;;;22.63;40.48
75699;BME280;64313;51.018;13.742;2023-07-22T12:05:09;99593.09;;;22.65;41.26
75699;BME280;64313;51.018;13.742;2023-07-22T12:07:36;99593.13;;;22.60;40.93
75699;BME280;64313;51.018;13.742;2023-07-22T12:10:04;99592.56;;;22.58;41.09
75699;BME280;64313;51.018;13.742;2023-07-22T12:15:09;99589.28;;;22.61;41.73
75699;BME280;64313;51.018;13.742;2023-07-22T12:17:55;99590.31;;;22.71;41.10
75699;BME280;64313;51.018;13.742;2023-07-22T12:20:28;99600.88;;;22.77;40.05
75699;BME280;64313;51.018;13.742;2023-07-22T12:22:54;99585.31;;;22.83;40.66
75699;BME280;64313;51.018;13.742;2023-07-22T12:25:19;99593.75;;;22.86;39.48
75699;BME280;64313;51.018;13.742;2023-07-22T12:27:45;99587.72;;;22.89;40.25
75699;BME280;64313;51.018;13.742;2023-07-22T12:30:10;99585.25;;;22.93;40.44
75699;BME280;64313;51.018;13.742;2023-07-22T12:32:36;99572.44;;;22.99;40.22
75699;BME280;64313;51.018;13.742;2023-07-22T12:35:01;99571.81;;;23.07;40.60
75699;BME280;64313;51.018;13.742;2023-07-22T12:37:28;99572.88;;;23.11;40.13
75699;BME280;64313;51.018;13.742;2023-07-22T12:39:54;99577.75;;;23.14;38.55
75699;BME280;64313;51.018;13.742;2023-07-22T12:42:19;99568.47;;;23.15;38.96
75699;BME280;64313;51.018;13.742;2023-07-22T12:44:45;99567.94;;;23.13;38.82
75699;BME280;64313;51.018;13.742;2023-07-22T12:47:11;99568.50;;;23.10;38.41
75699;BME280;64313;51.018;13.742;2023-07-22T12:49:36;99563.84;;;23.10;38.20
75699;BME280;64313;51.018;13.742;2023-07-22T12:52:02;99569.84;;;23.13;38.88
75699;BME280;64313;51.018;13.742;2023-07-22T12:54:29;99567.13;;;23.13;38.94
75699;BME280;64313;51.018;13.742;2023-07-22T12:56:55;99563.59;;;23.12;38.37
75699;BME280;64313;51.018;13.742;2023-07-22T12:59:21;99567.41;;;23.11;38.87
75699;BME280;64313;51.018;13.742;2023-07-22T13:01:47;99561.66;;;23.13;38.92